createdAt,value
2023-02-18T00:01:28.987Z,4.30
2023-02-18T00:05:18.187Z,5.70
2023-02-18T00:09:07.201Z,3.80
2023-02-18T00:12:56.690Z,5.30
2023-02-18T00:20:15.231Z,3.40
2023-02-18T00:24:04.579Z,3.40
2023-02-18T00:27:54.024Z,3.70
2023-02-18T00:31:46.239Z,3.90
2023-02-18T00:35:35.451Z,3.40
2023-02-18T00:39:30.761Z,4.50
2023-02-18T00:43:19.624Z,4.30
2023-02-18T00:47:09.042Z,3.60
2023-02-18T00:50:59.324Z,4.10
2023-02-18T00:54:48.445Z,4.70
2023-02-18T00:58:37.453Z,4.40
2023-02-18T01:02:26.420Z,3.50
2023-02-18T01:06:15.689Z,3.40
2023-02-18T01:10:05.068Z,3.10
2023-02-18T01:13:54.007Z,3.40
2023-02-18T01:17:43.129Z,3.10
2023-02-18T01:21:32.100Z,4.30
2023-02-18T01:25:21.073Z,3.30
2023-02-18T01:29:10.201Z,4.70
2023-02-18T01:32:59.242Z,3.10
2023-02-18T01:36:48.334Z,3.50
2023-02-18T01:40:37.866Z,3.00
2023-02-18T01:44:26.919Z,2.70
2023-02-18T01:48:16.003Z,2.40
2023-02-18T01:52:11.402Z,2.10
2023-02-18T02:07:49.820Z,2.40
2023-02-18T02:11:38.845Z,3.60
2023-02-18T02:15:49.042Z,2.40
2023-02-18T02:23:11.348Z,3.20
2023-02-18T02:27:01.727Z,3.10
2023-02-18T02:39:37.399Z,2.80
2023-02-18T02:43:35.574Z,2.60
2023-02-18T02:59:27.820Z,2.80
2023-02-18T03:03:28.637Z,2.80
2023-02-18T03:07:34.786Z,2.80
2023-02-18T03:19:45.988Z,3.00
2023-02-18T03:23:28.681Z,3.40
2023-02-18T03:27:17.667Z,3.90
2023-02-18T03:31:16.700Z,3.60
2023-02-18T03:34:50.507Z,3.70
2023-02-18T04:01:57.374Z,3.50
2023-02-18T04:05:45.108Z,3.20
2023-02-18T04:09:32.502Z,3.80
2023-02-18T04:13:20.193Z,3.90
2023-02-18T04:25:31.475Z,3.80
2023-02-18T04:29:18.930Z,3.70
2023-02-18T04:33:06.539Z,3.90
2023-02-18T04:36:55.729Z,3.30
2023-02-18T04:52:01.923Z,2.10
2023-02-18T04:55:33.433Z,1.60
2023-02-18T04:59:14.958Z,2.00
2023-02-18T05:03:04.158Z,1.70
2023-02-18T05:06:52.403Z,2.10
2023-02-18T05:26:10.726Z,1.80
2023-02-18T05:29:41.234Z,1.70
2023-02-18T05:33:18.137Z,2.30
2023-02-18T05:37:05.832Z,2.20
2023-02-18T05:40:36.919Z,2.00
2023-02-18T05:44:02.826Z,2.30
2023-02-18T06:06:15.525Z,2.60
2023-02-18T06:09:47.370Z,1.90
2023-02-18T06:13:03.683Z,2.30
2023-02-18T06:16:12.718Z,1.90
2023-02-18T06:19:41.773Z,2.30
2023-02-18T06:23:22.335Z,1.80
2023-02-18T06:27:02.486Z,2.50
2023-02-18T06:33:53.998Z,3.00
2023-02-18T06:37:43.008Z,2.60
2023-02-18T06:41:57.632Z,2.60
2023-02-18T06:44:55.366Z,2.80
2023-02-18T06:48:18.663Z,2.90
2023-02-18T06:51:40.552Z,2.40
2023-02-18T06:54:46.459Z,3.00
2023-02-18T06:58:25.946Z,2.70
2023-02-18T07:01:54.705Z,2.90
2023-02-18T07:04:46.888Z,3.40
2023-02-18T07:08:35.637Z,3.10
2023-02-18T07:12:05.734Z,3.40
2023-02-18T07:15:36.206Z,2.90
2023-02-18T07:19:17.191Z,2.60
2023-02-18T07:22:25.358Z,2.30
2023-02-18T07:25:48.018Z,2.20
2023-02-18T07:28:38.675Z,2.30
2023-02-18T07:31:19.223Z,2.90
2023-02-18T07:34:08.521Z,2.80
2023-02-18T07:37:13.219Z,3.20
2023-02-18T07:40:44.764Z,4.80
2023-02-18T07:44:22.592Z,4.80
2023-02-18T07:47:53.176Z,5.20
2023-02-18T07:51:09.715Z,5.40
2023-02-18T07:54:23.434Z,5.70
2023-02-18T07:57:46.168Z,6.30
2023-02-18T08:00:34.013Z,5.80
2023-02-18T08:03:08.087Z,6.20
2023-02-18T08:06:11.616Z,6.20
2023-02-18T08:08:54.158Z,6.10
2023-02-18T08:12:17.684Z,6.10
2023-02-18T08:15:57.492Z,6.00
2023-02-18T08:19:08.565Z,6.40
2023-02-18T08:22:50.518Z,7.20
2023-02-18T08:26:29.716Z,6.30
2023-02-18T08:29:40.959Z,6.10
2023-02-18T08:33:29.818Z,6.30
2023-02-18T08:36:46.078Z,6.60
2023-02-18T08:40:30.659Z,6.40
2023-02-18T08:44:02.802Z,5.70
2023-02-18T08:48:16.210Z,6.30
2023-02-18T08:50:55.863Z,4.90
2023-02-18T08:54:27.317Z,6.20
2023-02-18T08:57:56.218Z,5.80
2023-02-18T09:01:24.869Z,6.10
2023-02-18T09:05:14.260Z,6.50
2023-02-18T09:08:30.510Z,5.60
2023-02-18T09:45:23.859Z,5.30
2023-02-18T09:52:07.241Z,3.80
2023-02-18T09:55:15.723Z,3.10
2023-02-18T09:58:45.607Z,3.20
2023-02-18T10:02:21.802Z,4.30
2023-02-18T10:06:11.181Z,3.00
2023-02-18T10:09:25.932Z,4.30
2023-02-18T10:12:25.809Z,3.80
2023-02-18T10:15:59.116Z,4.30
2023-02-18T10:19:24.581Z,4.30
2023-02-18T10:22:37.257Z,4.00
2023-02-18T10:25:40.345Z,4.00
2023-02-18T10:29:29.890Z,3.90
2023-02-18T10:32:26.033Z,3.60
2023-02-18T10:35:38.384Z,3.40
2023-02-18T10:39:03.233Z,2.10
2023-02-18T10:42:41.415Z,2.70
2023-02-18T11:01:58.661Z,2.40
2023-02-18T11:05:46.926Z,2.60
2023-02-18T11:09:14.507Z,3.30
2023-02-18T11:12:58.313Z,3.10
2023-02-18T11:16:56.469Z,4.00
2023-02-18T11:20:44.178Z,4.30
2023-02-18T11:35:14.478Z,6.70
2023-02-18T11:39:16.430Z,9.00
2023-02-18T11:53:07.816Z,6.50
2023-02-18T11:56:53.901Z,7.20
2023-02-18T12:00:00.477Z,7.50
2023-02-18T12:03:35.250Z,7.20
2023-02-18T12:07:02.761Z,7.70
2023-02-18T12:13:12.205Z,7.00
2023-02-18T12:16:59.281Z,8.40
2023-02-18T12:20:27.549Z,8.70
2023-02-18T12:36:20.705Z,11.40
2023-02-18T12:40:21.579Z,11.50
2023-02-18T12:44:01.169Z,10.40
2023-02-18T12:47:18.414Z,12.50
2023-02-18T12:50:05.549Z,14.10
2023-02-18T12:53:04.782Z,18.10
2023-02-18T12:56:50.528Z,18.10
2023-02-18T13:00:31.907Z,18.50
2023-02-18T13:04:13.401Z,18.60
2023-02-18T13:07:59.486Z,19.40
2023-02-18T13:12:02.712Z,16.70
2023-02-18T13:15:31.622Z,18.40
2023-02-18T13:19:17.847Z,18.80
2023-02-18T13:26:45.198Z,16.60
2023-02-18T13:48:21.103Z,11.60
2023-02-18T13:51:35.096Z,10.50
2023-02-18T13:54:16.846Z,9.70
2023-02-18T13:57:45.414Z,9.80
2023-02-18T14:01:35.574Z,9.70
2023-02-18T14:08:28.221Z,9.30
2023-02-18T14:12:27.877Z,10.20
2023-02-18T14:16:20.359Z,12.80
2023-02-18T14:41:09.962Z,10.80
2023-02-18T14:44:45.558Z,12.70
2023-02-18T14:48:49.531Z,13.10
2023-02-18T15:07:24.507Z,10.30
2023-02-18T15:10:52.856Z,9.40
2023-02-18T15:14:27.751Z,11.40
2023-02-18T15:17:30.703Z,8.90
2023-02-18T15:41:33.980Z,5.50
2023-02-18T15:45:23.368Z,5.60
2023-02-18T15:49:00.099Z,6.90
2023-02-18T15:52:11.006Z,7.20
2023-02-18T15:55:28.743Z,7.10
2023-02-18T15:58:43.478Z,6.60
2023-02-18T16:02:28.337Z,6.70
2023-02-18T16:06:10.041Z,7.20
2023-02-18T16:09:22.779Z,4.70
2023-02-18T16:13:04.477Z,6.60
2023-02-18T16:25:05.031Z,6.90
2023-02-18T16:28:46.970Z,7.20
2023-02-18T16:32:26.516Z,6.40
2023-02-18T16:36:12.686Z,6.40
2023-02-18T16:39:05.207Z,5.60
2023-02-18T16:42:13.788Z,6.70
2023-02-18T16:44:52.105Z,6.60
2023-02-18T16:58:55.454Z,5.80
2023-02-18T17:02:04.066Z,4.60
2023-02-18T17:05:27.183Z,6.20
2023-02-18T17:08:49.410Z,7.30
2023-02-18T17:11:40.239Z,6.50
2023-02-18T17:14:24.172Z,6.20
2023-02-18T17:17:25.298Z,6.60
2023-02-18T17:21:03.696Z,7.50
2023-02-18T17:24:22.594Z,9.30
2023-02-18T17:27:00.530Z,7.90
2023-02-18T17:30:09.431Z,8.30
2023-02-18T17:33:02.886Z,8.70
2023-02-18T17:35:55.029Z,7.00
2023-02-18T17:39:25.440Z,6.60
2023-02-18T17:42:17.131Z,6.70
2023-02-18T17:45:25.020Z,7.10
2023-02-18T17:48:06.401Z,6.50
2023-02-18T17:51:22.506Z,6.70
2023-02-18T17:54:32.244Z,6.70
2023-02-18T17:57:34.361Z,7.10
2023-02-18T18:00:05.917Z,6.20
2023-02-18T18:03:17.276Z,5.80
2023-02-18T18:06:23.375Z,5.80
2023-02-18T18:09:12.925Z,6.20
2023-02-18T18:12:01.506Z,5.60
2023-02-18T18:14:52.848Z,6.10
2023-02-18T18:18:22.011Z,6.00
2023-02-18T18:21:48.890Z,5.70
2023-02-18T18:24:22.530Z,5.50
2023-02-18T18:27:52.399Z,6.20
2023-02-18T18:31:14.882Z,5.70
2023-02-18T18:37:26.378Z,5.20
2023-02-18T18:40:32.438Z,8.00
2023-02-18T18:43:57.858Z,6.60
2023-02-18T18:46:59.366Z,5.00
2023-02-18T18:50:48.682Z,6.50
2023-02-18T18:54:08.711Z,5.50
2023-02-18T18:57:58.336Z,5.20
2023-02-18T19:01:42.691Z,5.20
2023-02-18T19:05:21.522Z,5.30
2023-02-18T19:09:00.280Z,4.40
2023-02-18T19:12:41.830Z,5.20
2023-02-18T19:16:31.541Z,4.50
2023-02-18T19:20:11.385Z,5.70
2023-02-18T19:27:19.786Z,4.10
2023-02-18T19:30:49.159Z,4.20
2023-02-18T19:34:19.986Z,4.10
2023-02-18T19:40:58.913Z,3.10
2023-02-18T19:44:46.566Z,3.50
2023-02-18T19:48:35.912Z,6.90
2023-02-18T19:52:18.918Z,6.40
2023-02-18T19:56:09.025Z,7.10
2023-02-18T19:59:59.952Z,9.30
2023-02-18T20:03:25.273Z,8.80
2023-02-18T20:26:04.169Z,5.10
2023-02-18T20:29:51.922Z,6.80
2023-02-18T20:33:42.309Z,5.40
2023-02-18T20:37:31.580Z,5.40
2023-02-18T20:41:14.676Z,6.40
2023-02-18T20:44:57.801Z,5.10
2023-02-18T20:48:47.727Z,6.10
2023-02-18T20:55:58.429Z,6.20
2023-02-18T20:59:40.686Z,5.90
2023-02-18T21:06:57.271Z,5.50
2023-02-18T21:10:36.424Z,4.70
2023-02-18T21:47:43.060Z,3.20
2023-02-18T21:51:31.905Z,3.30
2023-02-18T21:55:15.017Z,2.50
2023-02-18T21:59:03.930Z,2.40
2023-02-18T22:06:31.174Z,3.30
2023-02-18T22:48:50.214Z,2.40
2023-02-18T22:52:39.163Z,2.90
2023-02-18T22:55:53.266Z,3.70
2023-02-18T22:59:15.999Z,1.90
2023-02-18T23:02:57.577Z,4.60
2023-02-18T23:05:46.174Z,5.40
2023-02-18T23:09:35.150Z,2.70
2023-02-18T23:13:04.765Z,2.30
2023-02-18T23:16:24.067Z,3.80
2023-02-18T23:18:55.319Z,2.90
2023-02-18T23:21:36.375Z,2.60
2023-02-18T23:28:55.890Z,2.20
2023-02-18T23:31:34.506Z,2.30
2023-02-18T23:34:43.724Z,3.20
2023-02-18T23:38:24.456Z,2.70
2023-02-18T23:41:16.431Z,2.00
2023-02-18T23:44:56.944Z,2.10
2023-02-18T23:48:45.842Z,2.80
2023-02-18T23:52:04.597Z,3.00
2023-02-18T23:54:54.531Z,3.50
